Time;durP1;ratioP1;P1;durP2;ratioP2;P2;SDS_P1;SDS_P2;PMS_P1;PMS_P2;Temp;Humidity;BMP_temperature;BMP_pressure;BME280_temperature;BME280_humidity;BME280_pressure;Samples;Min_cycle;Max_cycle;Signal;HPM_P1;HPM_P2
2022/05/20 00:00:34;;;;;;;6.80;2.83;;;18.40;93.70;;;;;;5052059;28;20044;-69
2022/05/20 00:03:39;;;;;;;5.43;2.80;;;18.30;93.90;;;;;;5052247;28;20036;-69
2022/05/20 00:06:44;;;;;;;7.75;2.92;;;18.30;94.20;;;;;;5051830;28;20048;-69
2022/05/20 00:09:48;;;;;;;9.07;3.10;;;18.30;94.20;;;;;;5052191;28;20044;-69
2022/05/20 00:12:52;;;;;;;5.07;3.15;;;18.30;94.40;;;;;;5052031;28;20056;-70
2022/05/20 00:15:56;;;;;;;6.30;2.58;;;18.30;94.50;;;;;;5051919;28;20044;-69
2022/05/20 00:19:03;;;;;;;5.00;2.67;;;18.30;94.70;;;;;;5050825;28;20075;-70
2022/05/20 00:22:07;;;;;;;7.72;3.17;;;18.30;94.60;;;;;;5051491;28;20052;-69
2022/05/20 00:28:36;;;;;;;8.02;2.67;;;18.30;94.80;;;;;;5051505;28;20523;-69
2022/05/20 00:31:40;;;;;;;4.80;2.70;;;18.30;94.70;;;;;;5039186;28;20044;-69
2022/05/20 00:34:44;;;;;;;9.07;2.83;;;18.30;94.70;;;;;;5051598;28;20048;-69
2022/05/20 00:37:49;;;;;;;3.80;2.47;;;18.30;94.60;;;;;;5051363;28;20052;-69
2022/05/20 00:40:55;;;;;;;9.13;3.00;;;18.30;94.70;;;;;;5051522;28;20392;-69
2022/05/20 00:43:59;;;;;;;8.93;3.20;;;18.30;95.10;;;;;;5051311;28;20036;-69
2022/05/20 00:47:03;;;;;;;6.35;3.03;;;18.20;94.80;;;;;;5051213;28;20108;-69
2022/05/20 00:50:12;;;;;;;5.47;2.22;;;18.30;94.80;;;;;;5051805;28;20398;-69
2022/05/20 00:53:20;;;;;;;9.50;3.00;;;18.30;94.80;;;;;;5051493;28;20486;-69
2022/05/20 00:56:46;;;;;;;5.18;2.60;;;18.30;95.00;;;;;;5051380;28;20043;-69
2022/05/20 00:59:55;;;;;;;10.95;2.78;;;18.20;95.00;;;;;;5051142;28;20044;-68
2022/05/20 01:03:03;;;;;;;6.18;3.17;;;18.00;95.80;;;;;;5050950;28;20048;-68
2022/05/20 01:06:09;;;;;;;7.88;3.03;;;17.60;97.40;;;;;;5050437;28;20060;-69
2022/05/20 01:09:13;;;;;;;9.15;3.60;;;17.40;98.90;;;;;;5050790;28;20056;-69
2022/05/20 01:12:17;;;;;;;7.78;3.65;;;17.10;99.90;;;;;;5051208;28;20048;-68
2022/05/20 01:15:21;;;;;;;8.43;4.25;;;16.90;99.90;;;;;;5051041;28;20391;-68
2022/05/20 01:18:25;;;;;;;10.00;4.97;;;16.70;99.90;;;;;;5050386;28;20048;-68
2022/05/20 01:21:29;;;;;;;8.68;4.43;;;16.40;99.90;;;;;;5050490;28;20048;-68
2022/05/20 01:24:33;;;;;;;9.38;4.20;;;16.20;99.90;;;;;;5050403;28;20060;-68
2022/05/20 01:27:42;;;;;;;5.63;4.10;;;16.20;99.90;;;;;;5050302;28;20056;-68
2022/05/20 01:30:54;;;;;;;8.85;4.20;;;16.20;99.90;;;;;;5050918;28;20040;-68
2022/05/20 01:33:59;;;;;;;12.23;4.45;;;16.10;99.90;;;;;;5050665;28;20072;-68
2022/05/20 01:37:02;;;;;;;8.15;3.70;;;16.10;99.90;;;;;;5050769;28;20391;-68
2022/05/20 01:40:07;;;;;;;12.52;3.65;;;16.20;99.90;;;;;;5050791;28;20064;-68
2022/05/20 01:43:42;;;;;;;9.25;4.25;;;16.20;99.90;;;;;;5050807;28;20056;-68
2022/05/20 01:47:27;;;;;;;7.15;4.00;;;16.20;99.90;;;;;;5049943;28;20048;-68
2022/05/20 01:50:45;;;;;;;7.22;3.65;;;16.20;99.90;;;;;;4973113;28;20058;-68
2022/05/20 01:53:57;;;;;;;9.10;3.75;;;16.20;99.90;;;;;;5050799;28;20392;-68
2022/05/20 01:57:12;;;;;;;9.55;3.50;;;16.20;99.90;;;;;;5050557;28;20490;-68
2022/05/20 02:00:25;;;;;;;10.32;3.85;;;16.20;99.90;;;;;;5050687;28;20491;-68
2022/05/20 02:03:50;;;;;;;8.10;3.55;;;16.20;99.90;;;;;;5050526;28;20063;-68
2022/05/20 02:07:03;;;;;;;7.90;3.88;;;16.20;99.90;;;;;;5049580;28;20048;-68
2022/05/20 02:10:23;;;;;;;5.75;3.17;;;16.30;99.90;;;;;;5050477;28;20040;-68
2022/05/20 02:13:32;;;;;;;8.80;3.85;;;16.30;99.90;;;;;;5050278;28;20048;-68
2022/05/20 02:16:44;;;;;;;6.28;3.92;;;16.40;99.90;;;;;;5050155;28;20393;-68
2022/05/20 02:19:56;;;;;;;8.18;3.30;;;16.40;99.90;;;;;;5050161;28;20051;-68
2022/05/20 02:23:08;;;;;;;13.70;3.60;;;16.40;99.90;;;;;;5050388;28;20056;-68
2022/05/20 02:26:16;;;;;;;8.73;3.40;;;16.50;99.90;;;;;;5050137;28;20044;-68
2022/05/20 02:29:45;;;;;;;7.90;3.58;;;16.50;99.90;;;;;;5049788;28;20411;-68
2022/05/20 02:33:03;;;;;;;6.32;3.25;;;16.50;99.90;;;;;;5050265;28;20053;-68
2022/05/20 02:36:17;;;;;;;4.35;3.10;;;16.50;99.90;;;;;;5050201;28;20395;-68
2022/05/20 02:39:21;;;;;;;6.68;3.55;;;16.50;99.90;;;;;;5050153;28;20052;-68
2022/05/20 02:42:28;;;;;;;6.70;3.13;;;16.50;99.90;;;;;;5050015;28;20040;-68
2022/05/20 02:45:33;;;;;;;8.20;3.40;;;16.50;99.90;;;;;;5050475;28;20048;-68
2022/05/20 02:48:37;;;;;;;12.35;4.22;;;16.40;99.90;;;;;;5049883;28;20044;-68
2022/05/20 02:51:40;;;;;;;8.63;4.35;;;16.30;99.90;;;;;;5050163;28;20418;-68
2022/05/20 02:54:44;;;;;;;12.60;3.92;;;16.20;99.90;;;;;;5049971;28;20052;-68
2022/05/20 02:57:50;;;;;;;5.32;3.53;;;16.10;99.90;;;;;;5049376;28;20400;-68
2022/05/20 03:04:17;;;;;;;10.30;4.25;;;15.90;99.90;;;;;;5053557;28;20044;-68
2022/05/20 03:07:21;;;;;;;7.90;4.68;;;15.60;99.90;;;;;;5053043;28;20048;-68
2022/05/20 03:10:26;;;;;;;7.57;4.55;;;15.60;99.90;;;;;;5053364;28;20047;-69
2022/05/20 03:13:30;;;;;;;12.02;4.30;;;15.50;99.90;;;;;;5053064;28;20048;-68
2022/05/20 03:16:35;;;;;;;6.07;4.43;;;15.50;99.90;;;;;;5053317;28;20322;-68
2022/05/20 03:19:40;;;;;;;10.93;4.32;;;15.50;99.90;;;;;;5053166;28;20047;-68
2022/05/20 03:22:46;;;;;;;6.43;4.30;;;15.50;99.90;;;;;;5052944;28;20048;-68
2022/05/20 03:25:49;;;;;;;6.53;4.28;;;15.40;99.90;;;;;;5053190;28;20494;-68
2022/05/20 03:28:54;;;;;;;11.13;4.30;;;15.40;99.90;;;;;;5053411;28;20037;-68
2022/05/20 03:31:59;;;;;;;9.27;4.63;;;15.40;99.90;;;;;;5053101;28;20052;-68
2022/05/20 03:35:05;;;;;;;6.57;3.88;;;15.30;99.90;;;;;;5053460;28;20052;-68
2022/05/20 03:38:09;;;;;;;8.98;5.03;;;15.30;99.90;;;;;;5052772;28;20056;-68
2022/05/20 03:41:14;;;;;;;11.10;4.50;;;15.30;99.90;;;;;;5053029;28;20048;-68
2022/05/20 03:44:19;;;;;;;6.57;4.30;;;15.20;99.90;;;;;;5052659;28;20384;-68
2022/05/20 03:47:23;;;;;;;11.07;5.00;;;15.20;99.90;;;;;;5052286;28;20048;-68
2022/05/20 03:50:28;;;;;;;7.57;4.78;;;15.30;99.90;;;;;;5052779;28;20044;-68
2022/05/20 03:53:32;;;;;;;11.43;4.72;;;15.30;99.90;;;;;;5052920;28;20082;-68
2022/05/20 03:56:36;;;;;;;10.13;4.53;;;15.20;99.90;;;;;;5052094;28;20028;-68
2022/05/20 03:59:40;;;;;;;10.25;5.10;;;15.20;99.90;;;;;;5052146;28;20105;-68
2022/05/20 04:02:43;;;;;;;9.13;4.40;;;15.10;99.90;;;;;;5052000;28;20128;-68
2022/05/20 04:05:48;;;;;;;11.07;4.60;;;15.10;99.90;;;;;;5052548;28;20052;-68
2022/05/20 04:08:52;;;;;;;15.48;5.05;;;15.10;99.90;;;;;;5051925;28;20040;-68
2022/05/20 04:11:58;;;;;;;14.05;5.00;;;15.10;99.90;;;;;;5050973;28;20044;-68
2022/05/20 04:15:04;;;;;;;10.55;4.32;;;15.10;99.90;;;;;;5052156;28;20056;-68
2022/05/20 04:18:08;;;;;;;7.05;4.68;;;15.10;99.90;;;;;;5051187;28;20048;-68
2022/05/20 04:21:14;;;;;;;12.90;5.22;;;15.20;99.90;;;;;;5051972;28;20044;-68
2022/05/20 04:24:20;;;;;;;15.13;5.70;;;15.30;99.90;;;;;;5052000;28;20068;-68
2022/05/20 04:27:27;;;;;;;10.02;5.18;;;15.40;99.90;;;;;;5051841;28;20499;-68
2022/05/20 04:30:31;;;;;;;8.77;4.93;;;15.50;99.90;;;;;;5051438;28;20547;-68
2022/05/20 04:33:35;;;;;;;13.38;4.97;;;15.60;99.90;;;;;;5051804;28;20036;-68
2022/05/20 04:36:39;;;;;;;12.70;5.63;;;15.60;99.90;;;;;;5051619;28;20048;-68
2022/05/20 04:39:45;;;;;;;12.30;5.18;;;15.80;99.90;;;;;;5051854;28;20391;-68
2022/05/20 04:49:39;;;;;;;8.80;4.90;;;18.80;99.90;;;;;;5051313;28;19916;-68
2022/05/20 04:52:43;;;;;;;11.57;4.53;;;19.40;99.90;;;;;;5051812;28;20495;-68
2022/05/20 04:55:47;;;;;;;10.50;4.70;;;20.60;99.90;;;;;;5051459;28;20059;-68
2022/05/20 04:58:51;;;;;;;11.88;5.13;;;20.80;99.90;;;;;;5051148;28;20044;-68
2022/05/20 05:01:55;;;;;;;5.80;4.18;;;21.50;99.90;;;;;;5051243;28;20043;-68
2022/05/20 05:04:59;;;;;;;9.43;4.00;;;21.80;99.90;;;;;;5051223;28;20036;-68
2022/05/20 05:08:05;;;;;;;7.70;3.92;;;21.80;99.90;;;;;;5050958;28;20782;-68
2022/05/20 05:11:09;;;;;;;6.80;3.92;;;21.50;99.90;;;;;;5051873;28;20056;-69
2022/05/20 05:14:14;;;;;;;17.00;4.47;;;21.80;99.90;;;;;;5051339;28;20402;-68
2022/05/20 05:20:50;;;;;;;5.82;3.90;;;21.70;99.90;;;;;;5051078;28;20067;-68
2022/05/20 05:23:54;;;;;;;10.40;3.60;;;22.00;99.90;;;;;;5051134;28;20511;-68
2022/05/20 05:26:59;;;;;;;5.28;3.47;;;22.60;99.90;;;;;;5050399;28;20064;-68
2022/05/20 05:30:04;;;;;;;4.95;3.15;;;23.50;99.90;;;;;;5050832;28;20044;-68
2022/05/20 05:33:08;;;;;;;5.65;3.22;;;24.70;98.90;;;;;;5051477;28;20083;-69
2022/05/20 05:36:13;;;;;;;7.15;3.38;;;25.50;97.70;;;;;;5050753;28;20048;-68
2022/05/20 05:39:17;;;;;;;10.25;3.28;;;25.80;97.20;;;;;;5050819;28;20044;-69
2022/05/20 05:42:21;;;;;;;19.70;4.30;;;26.20;96.30;;;;;;5050882;28;20055;-68
2022/05/20 05:45:27;;;;;;;9.30;3.50;;;26.90;95.50;;;;;;5050957;28;20200;-68
2022/05/20 05:48:31;;;;;;;7.97;3.60;;;27.60;94.40;;;;;;5050690;28;20047;-69
2022/05/20 05:51:35;;;;;;;9.63;3.63;;;26.30;94.40;;;;;;5050620;28;20241;-69
2022/05/20 05:54:40;;;;;;;5.75;3.25;;;25.00;95.30;;;;;;5050649;28;20052;-68
2022/05/20 05:57:44;;;;;;;10.93;3.00;;;24.60;95.70;;;;;;5042385;28;20502;-68
2022/05/20 06:00:48;;;;;;;7.45;3.40;;;25.40;95.40;;;;;;5050240;28;20051;-68
2022/05/20 06:03:51;;;;;;;10.38;3.17;;;25.50;95.10;;;;;;5050396;28;20040;-68
2022/05/20 06:06:56;;;;;;;14.10;3.45;;;25.70;94.90;;;;;;5050186;28;20056;-68
2022/05/20 06:09:59;;;;;;;11.18;3.63;;;26.20;94.50;;;;;;5044943;28;20382;-69
2022/05/20 06:13:04;;;;;;;6.15;2.58;;;26.60;94.10;;;;;;5049871;28;20043;-69
2022/05/20 06:16:09;;;;;;;5.93;2.78;;;27.20;93.30;;;;;;5048886;28;20036;-68
2022/05/20 06:19:13;;;;;;;9.20;2.70;;;27.50;92.60;;;;;;5029705;28;20056;-69
2022/05/20 06:22:17;;;;;;;6.53;3.10;;;27.80;92.40;;;;;;5040118;28;20048;-68
2022/05/20 06:25:23;;;;;;;6.20;2.95;;;27.80;92.10;;;;;;5047222;28;20055;-69
2022/05/20 06:28:27;;;;;;;7.40;2.63;;;27.40;91.90;;;;;;5053950;28;20027;-69
2022/05/20 06:31:30;;;;;;;8.40;2.97;;;26.60;92.70;;;;;;5042814;28;20581;-68
2022/05/20 06:41:21;;;;;;;5.32;2.80;;;26.50;92.70;;;;;;5049413;28;20048;-69
2022/05/20 06:44:28;;;;;;;7.13;2.92;;;27.10;92.20;;;;;;5052410;28;20040;-69
2022/05/20 06:47:33;;;;;;;5.18;2.20;;;27.40;91.80;;;;;;5047375;28;20044;-69
2022/05/20 06:50:39;;;;;;;6.28;2.80;;;27.40;91.60;;;;;;5035630;28;20036;-68
2022/05/20 06:53:43;;;;;;;6.10;3.25;;;27.30;91.20;;;;;;5051962;28;20063;-68
2022/05/20 06:56:47;;;;;;;7.15;3.28;;;25.10;92.80;;;;;;5051282;28;20040;-69
2022/05/20 06:59:52;;;;;;;6.13;3.03;;;23.90;94.40;;;;;;5032947;28;20523;-68
2022/05/20 07:02:57;;;;;;;4.07;2.80;;;23.50;95.40;;;;;;5041908;28;20043;-68
2022/05/20 07:06:03;;;;;;;7.43;3.10;;;23.80;95.30;;;;;;5048139;28;20132;-68
2022/05/20 07:09:08;;;;;;;6.82;3.10;;;24.20;94.50;;;;;;5049076;28;20478;-69
2022/05/20 07:12:12;;;;;;;8.80;4.05;;;25.20;93.60;;;;;;5049276;28;20040;-69
2022/05/20 07:15:15;;;;;;;7.28;2.50;;;26.10;93.10;;;;;;5050644;28;20044;-68
2022/05/20 07:18:19;;;;;;;7.80;3.00;;;27.30;92.10;;;;;;5046601;28;20044;-69
2022/05/20 07:21:25;;;;;;;12.20;3.25;;;28.10;91.60;;;;;;5049012;28;20036;-69
2022/05/20 07:24:30;;;;;;;9.05;3.42;;;28.70;91.40;;;;;;5041882;28;20044;-69
2022/05/20 07:27:34;;;;;;;7.68;3.03;;;28.80;90.50;;;;;;5049621;28;20044;-70
2022/05/20 07:30:38;;;;;;;4.68;3.00;;;29.10;90.40;;;;;;5045349;28;20048;-70
2022/05/20 07:33:43;;;;;;;6.43;2.72;;;28.10;90.40;;;;;;5053978;28;20052;-70
2022/05/20 07:36:47;;;;;;;7.80;2.72;;;29.40;89.80;;;;;;5047138;28;20047;-71
2022/05/20 07:39:51;;;;;;;7.13;3.05;;;29.50;88.00;;;;;;5060240;28;20048;-71
2022/05/20 07:42:55;;;;;;;6.15;2.88;;;29.00;89.90;;;;;;5057882;28;20503;-70
2022/05/20 07:45:59;;;;;;;7.70;3.13;;;30.00;87.70;;;;;;5058452;28;20047;-70
2022/05/20 07:49:03;;;;;;;12.23;3.35;;;30.80;87.00;;;;;;5056837;28;20048;-71
2022/05/20 07:52:09;;;;;;;7.93;3.10;;;31.00;85.20;;;;;;5050252;28;20388;-71
2022/05/20 07:55:15;;;;;;;6.55;3.30;;;32.60;83.10;;;;;;5059306;28;20048;-70
2022/05/20 07:58:24;;;;;;;10.82;3.45;;;33.00;82.50;;;;;;5042211;28;20045;-70
2022/05/20 08:01:32;;;;;;;6.07;3.33;;;33.90;80.00;;;;;;5051028;28;20043;-70
2022/05/20 08:08:05;;;;;;;9.25;3.22;;;35.40;76.70;;;;;;5049371;28;20044;-70
2022/05/20 08:11:09;;;;;;;5.30;2.92;;;32.70;76.20;;;;;;5050101;28;20130;-70
2022/05/20 08:14:13;;;;;;;7.43;3.05;;;34.20;77.20;;;;;;5051302;28;20039;-70
2022/05/20 08:17:24;;;;;;;6.75;3.38;;;34.90;76.60;;;;;;5048670;28;20471;-70
2022/05/20 08:20:30;;;;;;;6.63;3.35;;;33.80;75.50;;;;;;5048565;28;20048;-70
2022/05/20 08:23:34;;;;;;;5.30;3.10;;;33.40;77.90;;;;;;5050285;28;20051;-70
2022/05/20 08:26:38;;;;;;;6.05;2.83;;;33.00;75.90;;;;;;5046043;28;20037;-70
2022/05/20 08:29:42;;;;;;;4.82;2.83;;;34.30;75.60;;;;;;5058259;28;20051;-70
2022/05/20 08:32:47;;;;;;;61.15;4.82;;;36.00;74.30;;;;;;5054050;28;20055;-70
2022/05/20 08:35:53;;;;;;;4.32;2.28;;;35.80;73.50;;;;;;5041558;28;20044;-70
2022/05/20 08:38:57;;;;;;;3.25;1.88;;;36.20;71.20;;;;;;5056993;28;20036;-70
2022/05/20 08:42:02;;;;;;;4.03;2.08;;;38.10;64.60;;;;;;5054843;28;20044;-70
2022/05/20 08:45:08;;;;;;;6.68;2.20;;;37.00;68.00;;;;;;5050799;28;20043;-70
2022/05/20 08:48:15;;;;;;;5.85;2.83;;;38.40;65.90;;;;;;5049425;28;20031;-70
2022/05/20 08:51:21;;;;;;;4.88;1.73;;;35.20;65.50;;;;;;5049590;28;20040;-70
2022/05/20 08:54:25;;;;;;;4.78;1.90;;;35.60;67.50;;;;;;5044220;28;20040;-70
2022/05/20 08:57:33;;;;;;;2.90;1.77;;;38.20;64.50;;;;;;5042066;28;20499;-71
2022/05/20 09:00:37;;;;;;;8.70;2.13;;;37.90;62.90;;;;;;5042198;28;20502;-71
2022/05/20 09:03:42;;;;;;;3.55;1.90;;;39.60;63.20;;;;;;5042927;28;20051;-71
2022/05/20 09:07:11;;;;;;;6.63;2.28;;;41.00;61.10;;;;;;5042007;28;20056;-71
2022/05/20 09:10:38;;;;;;;8.35;1.85;;;42.60;58.00;;;;;;5042583;28;20047;-71
2022/05/20 09:17:12;;;;;;;5.53;1.98;;;38.60;55.20;;;;;;5040281;28;20048;-70
2022/05/20 09:20:20;;;;;;;7.95;1.98;;;36.40;58.70;;;;;;5047371;28;20048;-70
2022/05/20 09:23:25;;;;;;;2.05;1.60;;;36.40;60.20;;;;;;5048957;28;20499;-71
2022/05/20 09:26:42;;;;;;;2.10;1.60;;;39.30;56.60;;;;;;5042441;28;20063;-71
2022/05/20 09:30:07;;;;;;;4.93;1.80;;;41.40;55.70;;;;;;5042383;28;20040;-73
2022/05/20 09:33:21;;;;;;;3.72;1.67;;;42.40;56.00;;;;;;5044714;28;20060;-72
2022/05/20 09:36:55;;;;;;;5.97;1.92;;;43.00;55.50;;;;;;5039180;28;20499;-71
2022/05/20 09:40:15;;;;;;;12.20;1.98;;;44.10;54.80;;;;;;5056361;28;20044;-72
2022/05/20 09:43:26;;;;;;;7.28;1.70;;;45.00;55.40;;;;;;5041539;28;20047;-72
2022/05/20 09:46:48;;;;;;;3.22;1.65;;;46.10;54.40;;;;;;5044962;28;20048;-71
2022/05/20 09:50:03;;;;;;;50.67;4.72;;;45.90;52.60;;;;;;5052731;28;20040;-72
2022/05/20 09:53:32;;;;;;;5.68;1.63;;;46.60;53.60;;;;;;5058825;28;20490;-71
2022/05/20 09:57:00;;;;;;;5.00;2.15;;;47.30;53.20;;;;;;5044565;28;20637;-72
2022/05/20 10:00:17;;;;;;;7.20;1.65;;;47.80;52.20;;;;;;5058503;28;21773;-72
2022/05/20 10:03:41;;;;;;;7.65;2.22;;;47.10;52.40;;;;;;5057105;28;20044;-72
2022/05/20 10:06:54;;;;;;;4.65;1.70;;;47.30;51.20;;;;;;5041321;28;20048;-71
2022/05/20 10:10:07;;;;;;;5.25;1.70;;;46.40;51.40;;;;;;5048847;28;20032;-73
2022/05/20 10:13:31;;;;;;;4.63;1.80;;;46.90;51.90;;;;;;5048823;28;20044;-72
2022/05/20 10:16:53;;;;;;;3.85;1.92;;;46.70;52.80;;;;;;5059244;28;20044;-72
2022/05/20 10:20:25;;;;;;;3.00;1.55;;;46.00;51.20;;;;;;5060147;28;20056;-74
2022/05/20 10:23:44;;;;;;;3.47;1.80;;;45.70;53.50;;;;;;5057668;28;20047;-72
2022/05/20 10:27:07;;;;;;;5.30;2.15;;;46.00;52.40;;;;;;5050944;28;20040;-72
2022/05/20 10:33:48;;;;;;;8.65;2.13;;;46.30;50.70;;;;;;5044924;28;20044;-72
2022/05/20 10:37:15;;;;;;;2.83;1.52;;;46.40;50.80;;;;;;5046525;28;20479;-72
2022/05/20 10:40:34;;;;;;;3.25;1.45;;;46.70;50.60;;;;;;5044616;28;20098;-71
2022/05/20 10:51:47;;;;;;;5.63;1.67;;;45.90;51.30;;;;;;5043763;28;20047;-71
2022/05/20 10:55:15;;;;;;;4.90;1.60;;;42.70;50.70;;;;;;5047384;28;20048;-73
2022/05/20 10:58:50;;;;;;;4.47;1.80;;;41.60;52.70;;;;;;5038704;28;20036;-72
2022/05/20 11:02:06;;;;;;;9.43;1.80;;;36.90;54.10;;;;;;5058231;28;20055;-73
2022/05/20 11:05:23;;;;;;;3.53;1.60;;;38.70;56.70;;;;;;5044230;28;20044;-72
2022/05/20 11:08:36;;;;;;;7.45;1.90;;;40.90;54.90;;;;;;5049233;28;20044;-72
2022/05/20 11:12:04;;;;;;;6.45;1.80;;;42.60;53.10;;;;;;5051781;28;20052;-72
2022/05/20 11:15:26;;;;;;;4.88;1.90;;;43.80;52.70;;;;;;5053103;28;20044;-72
2022/05/20 11:18:57;;;;;;;9.45;1.60;;;44.10;53.60;;;;;;5054434;28;20040;-71
2022/05/20 11:22:17;;;;;;;5.72;1.50;;;44.40;51.40;;;;;;5052892;28;20040;-71
2022/05/20 11:25:24;;;;;;;6.55;1.70;;;44.70;51.30;;;;;;5049366;28;20419;-72
2022/05/20 11:28:58;;;;;;;5.72;1.80;;;45.00;50.80;;;;;;5042813;28;20040;-72
2022/05/20 11:32:22;;;;;;;4.45;1.80;;;44.30;50.90;;;;;;5053232;28;20040;-72
2022/05/20 11:35:46;;;;;;;4.25;1.70;;;41.30;50.90;;;;;;5054472;28;20040;-72
2022/05/20 11:39:18;;;;;;;6.68;1.70;;;41.80;52.60;;;;;;5054551;28;20055;-71
2022/05/20 11:42:38;;;;;;;5.22;1.80;;;41.60;52.10;;;;;;5047372;28;20039;-71
2022/05/20 11:46:18;;;;;;;7.03;2.22;;;39.70;52.50;;;;;;5058345;28;20040;-71
2022/05/20 11:49:43;;;;;;;3.72;1.67;;;40.10;53.60;;;;;;5050418;28;20039;-71
2022/05/20 11:53:04;;;;;;;5.13;1.95;;;41.30;53.10;;;;;;5052293;28;20384;-71
2022/05/20 11:56:43;;;;;;;2.88;1.50;;;38.60;52.90;;;;;;5051647;28;20044;-70
2022/05/20 12:00:02;;;;;;;5.20;1.77;;;39.00;54.40;;;;;;5044475;28;20057;-72
2022/05/20 12:03:16;;;;;;;5.78;1.75;;;38.80;55.00;;;;;;5038406;28;20604;-70
2022/05/20 12:06:25;;;;;;;6.82;1.60;;;39.70;52.60;;;;;;5044637;28;20055;-71
2022/05/20 12:09:41;;;;;;;12.35;2.78;;;40.20;53.50;;;;;;5053068;28;20056;-71
2022/05/20 12:13:08;;;;;;;7.90;1.90;;;40.40;55.50;;;;;;5045251;28;20060;-71
2022/05/20 12:16:15;;;;;;;5.43;1.92;;;39.80;53.40;;;;;;5049590;28;20052;-70
2022/05/20 12:27:00;;;;;;;5.40;2.05;;;39.20;54.70;;;;;;4979816;28;20041;-70
2022/05/20 12:30:17;;;;;;;6.25;1.90;;;38.30;53.40;;;;;;5070069;28;20044;-70
2022/05/20 12:33:47;;;;;;;8.40;2.00;;;38.40;55.70;;;;;;5048561;28;20044;-70
2022/05/20 12:36:51;;;;;;;3.53;1.70;;;38.70;55.00;;;;;;5048456;28;20068;-71
2022/05/20 12:39:56;;;;;;;6.18;1.98;;;38.40;56.90;;;;;;5050547;28;20060;-70
2022/05/20 12:43:02;;;;;;;7.43;2.05;;;38.40;55.60;;;;;;5051465;28;20514;-71
2022/05/20 12:46:11;;;;;;;6.93;2.25;;;38.20;57.10;;;;;;5038293;28;20120;-71
2022/05/20 12:49:17;;;;;;;4.05;1.95;;;38.10;55.60;;;;;;5028562;28;20044;-70
2022/05/20 12:52:29;;;;;;;9.10;2.10;;;38.30;55.70;;;;;;5049687;28;20416;-71
2022/05/20 12:55:43;;;;;;;5.43;1.85;;;38.00;55.90;;;;;;5050691;28;20052;-70
2022/05/20 12:58:48;;;;;;;3.25;1.58;;;37.30;55.40;;;;;;5049489;28;20044;-71
2022/05/20 13:01:57;;;;;;;9.82;2.42;;;37.10;56.00;;;;;;5050679;28;20485;-71
2022/05/20 13:05:15;;;;;;;6.38;2.10;;;36.30;54.60;;;;;;5050301;28;20495;-71
2022/05/20 13:08:22;;;;;;;7.28;2.03;;;34.10;55.90;;;;;;5050178;28;20036;-70
2022/05/20 13:11:27;;;;;;;3.85;2.03;;;33.40;58.70;;;;;;5045458;28;20047;-71
2022/05/20 13:14:31;;;;;;;7.35;2.08;;;31.40;59.60;;;;;;5045739;28;20400;-70
2022/05/20 13:17:36;;;;;;;5.32;2.20;;;31.10;62.60;;;;;;5040373;28;20048;-70
2022/05/20 13:20:41;;;;;;;5.93;1.95;;;32.30;62.00;;;;;;5045541;28;20052;-70
2022/05/20 13:23:49;;;;;;;9.85;2.20;;;33.50;60.00;;;;;;5041186;28;21505;-71
2022/05/20 13:27:17;;;;;;;6.47;1.90;;;34.20;62.40;;;;;;5052098;28;20063;-71
2022/05/20 13:30:25;;;;;;;5.53;2.15;;;34.30;60.00;;;;;;5037105;28;20258;-71
2022/05/20 13:33:30;;;;;;;7.65;2.38;;;34.40;61.00;;;;;;5047795;28;20036;-71
2022/05/20 13:36:48;;;;;;;5.50;2.60;;;34.30;60.50;;;;;;5041911;28;20051;-71
2022/05/20 13:39:55;;;;;;;9.13;2.20;;;32.60;59.70;;;;;;5055255;28;20044;-71
2022/05/20 13:43:00;;;;;;;6.25;2.13;;;33.20;64.00;;;;;;5041486;28;20052;-71
2022/05/20 13:49:35;;;;;;;10.77;2.40;;;33.90;64.20;;;;;;5045207;28;20122;-71
2022/05/20 13:52:43;;;;;;;5.15;2.60;;;33.70;62.00;;;;;;5062799;28;20512;-71
2022/05/20 13:55:47;;;;;;;8.50;2.33;;;33.60;62.80;;;;;;5052806;28;20040;-70
2022/05/20 13:58:52;;;;;;;8.50;2.40;;;33.50;61.30;;;;;;5057687;28;20501;-72
2022/05/20 14:02:08;;;;;;;6.25;2.00;;;33.60;61.70;;;;;;5055739;28;20036;-70
2022/05/20 14:05:23;;;;;;;6.20;2.08;;;33.30;62.40;;;;;;5042528;28;20498;-71
2022/05/20 14:08:27;;;;;;;10.20;2.80;;;33.30;64.00;;;;;;5051414;28;20511;-70
2022/05/20 14:11:41;;;;;;;8.85;2.25;;;32.30;63.40;;;;;;5054052;28;20056;-70
2022/05/20 14:14:59;;;;;;;11.90;2.17;;;32.60;65.60;;;;;;5045791;28;20052;-70
2022/05/20 14:18:05;;;;;;;4.40;2.70;;;32.80;64.40;;;;;;5057278;28;20055;-71
2022/05/20 14:21:25;;;;;;;15.85;2.38;;;32.80;63.10;;;;;;5056799;28;20044;-70
2022/05/20 14:24:34;;;;;;;13.40;2.45;;;32.40;64.00;;;;;;5044065;28;20044;-70
2022/05/20 14:27:43;;;;;;;10.60;2.53;;;32.30;64.40;;;;;;5053973;28;20044;-70
2022/05/20 14:30:59;;;;;;;6.32;2.00;;;32.30;64.50;;;;;;5052351;28;20582;-70
2022/05/20 14:34:18;;;;;;;8.10;2.45;;;32.40;65.70;;;;;;5045138;28;20048;-71
2022/05/20 14:37:29;;;;;;;4.85;2.33;;;32.30;64.30;;;;;;5052322;28;20044;-70
2022/05/20 14:40:37;;;;;;;13.45;2.20;;;32.20;64.70;;;;;;5048430;28;20053;-69
2022/05/20 14:43:54;;;;;;;8.15;1.98;;;32.10;66.70;;;;;;5053320;28;20059;-72
2022/05/20 14:47:14;;;;;;;6.45;1.83;;;32.00;66.00;;;;;;5042874;28;20408;-69
2022/05/20 14:50:23;;;;;;;6.88;2.20;;;31.90;66.90;;;;;;5044000;28;20036;-69
2022/05/20 14:53:39;;;;;;;6.10;2.20;;;31.50;65.80;;;;;;5052554;28;20527;-71
2022/05/20 14:56:48;;;;;;;8.07;2.00;;;31.30;65.40;;;;;;5060240;28;20387;-71
2022/05/20 15:00:11;;;;;;;8.35;2.38;;;31.20;66.90;;;;;;5050656;28;20052;-70
2022/05/20 15:03:15;;;;;;;6.45;1.80;;;30.90;66.70;;;;;;5041734;28;20052;-69
2022/05/20 15:06:26;;;;;;;4.65;2.53;;;31.00;64.10;;;;;;5052605;28;20487;-69
2022/05/20 15:09:36;;;;;;;10.43;2.33;;;30.90;65.80;;;;;;5056758;28;20059;-70
2022/05/20 15:12:41;;;;;;;7.82;2.50;;;30.90;66.10;;;;;;5054110;28;20045;-69
2022/05/20 15:15:45;;;;;;;25.58;3.53;;;30.80;65.40;;;;;;5057260;28;20652;-70
2022/05/20 15:18:51;;;;;;;3.55;1.65;;;30.60;66.30;;;;;;5033078;28;20040;-69
2022/05/20 15:21:56;;;;;;;6.07;2.05;;;30.40;65.10;;;;;;5032436;28;20413;-69
2022/05/20 15:25:00;;;;;;;7.85;2.28;;;30.30;65.50;;;;;;5032189;28;20049;-69
2022/05/20 15:28:47;;;;;;;13.88;2.30;;;30.30;65.50;;;;;;5032178;28;20044;-70
2022/05/20 15:34:56;;;;;;;5.00;2.10;;;29.80;65.00;;;;;;5032880;28;20052;-69
2022/05/20 15:38:01;;;;;;;7.22;1.85;;;29.80;66.10;;;;;;5031570;28;20057;-70
2022/05/20 15:41:05;;;;;;;4.68;2.47;;;29.80;63.90;;;;;;5032665;28;20056;-69
2022/05/20 15:44:10;;;;;;;5.55;1.80;;;29.80;63.70;;;;;;5019640;28;20041;-69
2022/05/20 15:47:15;;;;;;;3.88;1.63;;;29.70;63.30;;;;;;5031834;28;20065;-69
2022/05/20 15:50:22;;;;;;;5.05;2.00;;;29.70;65.10;;;;;;5019968;28;20036;-69
2022/05/20 15:53:27;;;;;;;3.72;1.90;;;29.70;65.00;;;;;;5032676;28;20495;-69
2022/05/20 15:56:31;;;;;;;6.07;1.60;;;29.70;63.40;;;;;;5031642;28;20064;-69
2022/05/20 15:59:35;;;;;;;7.03;1.80;;;29.60;63.30;;;;;;5032239;28;20044;-69
2022/05/20 16:02:40;;;;;;;7.53;2.30;;;29.70;64.50;;;;;;5032109;28;20056;-69
2022/05/20 16:05:44;;;;;;;4.40;2.00;;;29.70;64.60;;;;;;5031486;28;20041;-70
2022/05/20 16:08:48;;;;;;;7.15;2.13;;;29.50;65.50;;;;;;5031903;28;20121;-70
2022/05/20 16:11:52;;;;;;;7.13;2.55;;;29.30;66.30;;;;;;5031930;28;20052;-70
2022/05/20 16:14:57;;;;;;;7.38;2.28;;;29.10;67.60;;;;;;5031879;28;20048;-69
2022/05/20 16:18:03;;;;;;;7.82;2.35;;;29.00;68.50;;;;;;5030756;28;20396;-70
2022/05/20 16:21:07;;;;;;;7.97;1.92;;;28.80;68.80;;;;;;5031138;28;20040;-70
2022/05/20 16:24:11;;;;;;;4.82;2.00;;;28.70;68.60;;;;;;5030063;28;20064;-69
2022/05/20 16:27:17;;;;;;;7.32;2.30;;;28.60;69.00;;;;;;5030760;28;20126;-69
2022/05/20 16:30:26;;;;;;;6.88;2.20;;;28.60;68.40;;;;;;5031381;28;20116;-70
2022/05/20 16:33:30;;;;;;;5.55;1.80;;;28.60;69.70;;;;;;5031442;28;20121;-69
2022/05/20 16:36:36;;;;;;;4.07;2.10;;;28.60;69.60;;;;;;5030736;28;20064;-69
2022/05/20 16:39:41;;;;;;;5.70;2.13;;;28.60;67.80;;;;;;5031405;28;20072;-69
2022/05/20 16:42:45;;;;;;;4.35;2.00;;;28.50;69.00;;;;;;5031259;28;20057;-69
2022/05/20 16:45:50;;;;;;;5.47;2.08;;;28.50;68.80;;;;;;5031361;28;20049;-69
2022/05/20 16:48:58;;;;;;;3.35;1.67;;;28.40;68.60;;;;;;5030767;28;20049;-69
2022/05/20 16:52:03;;;;;;;5.40;2.22;;;28.20;68.40;;;;;;5030901;28;20048;-69
2022/05/20 16:55:07;;;;;;;4.35;1.90;;;28.00;68.10;;;;;;5030701;28;20052;-69
2022/05/20 17:01:47;;;;;;;3.47;1.90;;;27.80;68.80;;;;;;5030779;28;20393;-69
2022/05/20 17:04:51;;;;;;;9.77;2.60;;;27.60;69.50;;;;;;5030457;28;20044;-69
2022/05/20 17:07:55;;;;;;;5.82;1.77;;;27.50;69.00;;;;;;5030196;28;20044;-69
2022/05/20 17:10:59;;;;;;;8.40;2.60;;;27.30;69.10;;;;;;5018446;28;20311;-69
2022/05/20 17:14:09;;;;;;;7.22;1.90;;;27.20;68.90;;;;;;5030615;28;20507;-69
2022/05/20 17:17:14;;;;;;;8.55;2.25;;;27.00;68.70;;;;;;5029282;28;20377;-69
2022/05/20 17:20:18;;;;;;;5.03;2.25;;;26.90;69.00;;;;;;5030230;28;20359;-69
2022/05/20 17:26:45;;;;;;;4.60;2.17;;;26.60;69.20;;;;;;5029851;28;20040;-68